createdAt,value
2018-12-04T00:00:55.575Z,9.92
2018-12-04T00:01:55.551Z,9.97
2018-12-04T00:02:55.498Z,9.95
2018-12-04T00:03:55.412Z,10.01
2018-12-04T00:04:55.361Z,9.95
2018-12-04T00:05:55.308Z,9.91
2018-12-04T00:06:55.257Z,9.95
2018-12-04T00:07:55.232Z,9.89
2018-12-04T00:08:55.152Z,9.92
2018-12-04T00:09:55.099Z,9.92
2018-12-04T00:10:55.045Z,9.86
2018-12-04T00:11:55.028Z,9.84
2018-12-04T00:12:54.941Z,9.83
2018-12-04T00:13:54.885Z,9.98
2018-12-04T00:14:54.830Z,9.97
2018-12-04T00:15:54.779Z,9.97
2018-12-04T00:16:54.754Z,9.91
2018-12-04T00:17:54.671Z,9.95
2018-12-04T00:18:54.653Z,9.87
2018-12-04T00:19:54.564Z,9.87
2018-12-04T00:20:54.512Z,9.97
2018-12-04T00:21:54.455Z,9.94
2018-12-04T00:22:54.404Z,9.92
2018-12-04T00:23:54.383Z,9.97
2018-12-04T00:24:54.304Z,9.97
2018-12-04T00:25:54.245Z,9.95
2018-12-04T00:26:54.194Z,9.89
2018-12-04T00:27:54.136Z,9.87
2018-12-04T00:28:54.117Z,9.99
2018-12-04T00:29:54.033Z,9.92
2018-12-04T00:30:53.980Z,9.91
2018-12-04T00:31:53.929Z,9.94
2018-12-04T00:32:53.873Z,9.87
2018-12-04T00:33:53.849Z,9.89
2018-12-04T00:34:53.803Z,9.89
2018-12-04T00:35:53.715Z,9.86
2018-12-04T00:36:53.691Z,9.89
2018-12-04T00:37:53.611Z,9.97
2018-12-04T00:38:53.595Z,9.95
2018-12-04T00:39:53.504Z,9.95
2018-12-04T00:40:53.460Z,9.89
2018-12-04T00:41:53.390Z,9.94
2018-12-04T00:42:53.340Z,9.80
2018-12-04T00:43:53.320Z,9.82
2018-12-04T00:44:53.231Z,9.89
2018-12-04T00:45:53.183Z,9.91
2018-12-04T00:46:53.129Z,9.87
2018-12-04T00:47:53.102Z,9.92
2018-12-04T00:48:53.020Z,9.86
2018-12-04T00:49:52.987Z,9.94
2018-12-04T00:50:52.948Z,9.92
2018-12-04T00:51:52.867Z,9.87
2018-12-04T00:52:52.838Z,9.95
2018-12-04T00:53:52.759Z,9.87
2018-12-04T00:54:52.698Z,9.94
2018-12-04T00:55:52.645Z,9.94
2018-12-04T00:56:52.624Z,9.92
2018-12-04T00:57:52.568Z,9.97
2018-12-04T00:58:52.486Z,9.83
2018-12-04T00:59:52.436Z,9.92
2018-12-04T01:00:52.384Z,9.95
2018-12-04T01:01:52.357Z,9.87
2018-12-04T01:02:52.273Z,9.89
2018-12-04T01:03:52.220Z,9.87
2018-12-04T01:04:52.171Z,9.91
2018-12-04T01:05:52.112Z,9.94
2018-12-04T01:06:52.085Z,9.84
2018-12-04T01:07:52.012Z,9.84
2018-12-04T01:08:51.989Z,9.87
2018-12-04T01:09:51.933Z,9.82
2018-12-04T01:10:51.850Z,9.80
2018-12-04T01:11:51.827Z,9.80
2018-12-04T01:12:51.741Z,9.82
2018-12-04T01:13:51.689Z,9.89
2018-12-04T01:14:51.665Z,9.87
2018-12-04T01:15:51.582Z,9.87
2018-12-04T01:16:51.527Z,9.79
2018-12-04T01:17:51.504Z,9.84
2018-12-04T01:18:51.426Z,9.84
2018-12-04T01:19:51.372Z,9.80
2018-12-04T01:20:51.315Z,9.80
2018-12-04T01:21:51.261Z,9.84
2018-12-04T01:22:51.242Z,9.84
2018-12-04T01:23:51.193Z,9.84
2018-12-04T01:24:51.104Z,9.82
2018-12-04T01:25:51.047Z,9.84
2018-12-04T01:26:50.995Z,9.91
2018-12-04T01:27:50.975Z,9.82
2018-12-04T01:28:50.889Z,9.82
2018-12-04T01:29:50.834Z,9.91
2018-12-04T01:30:50.780Z,9.80
2018-12-04T01:31:50.727Z,9.91
2018-12-04T01:32:50.706Z,9.77
2018-12-04T01:33:50.625Z,9.79
2018-12-04T01:34:50.569Z,9.82
2018-12-04T01:35:50.545Z,9.83
2018-12-04T01:36:50.465Z,9.87
2018-12-04T01:37:50.407Z,9.83
2018-12-04T01:38:50.358Z,9.87
2018-12-04T01:39:50.301Z,9.84
2018-12-04T01:40:50.281Z,9.80
2018-12-04T01:41:50.194Z,9.84
2018-12-04T01:42:50.142Z,9.86
2018-12-04T01:43:50.086Z,9.91
2018-12-04T01:44:50.035Z,9.91
2018-12-04T01:45:50.005Z,9.87
2018-12-04T01:46:49.958Z,9.80
2018-12-04T01:47:49.873Z,9.77
2018-12-04T01:48:49.822Z,9.89
2018-12-04T01:49:49.768Z,9.91
2018-12-04T01:50:49.716Z,9.83
2018-12-04T01:51:49.693Z,9.86
2018-12-04T01:52:49.608Z,9.92
2018-12-04T01:53:49.554Z,9.91
2018-12-04T01:54:49.532Z,9.83
2018-12-04T01:55:49.459Z,9.82
2018-12-04T01:56:49.399Z,9.83
2018-12-04T01:57:49.343Z,9.82
2018-12-04T01:58:49.327Z,9.80
2018-12-04T01:59:49.237Z,9.80
2018-12-04T02:00:49.186Z,9.84
2018-12-04T02:01:49.127Z,9.79
2018-12-04T02:02:49.075Z,9.82
2018-12-04T02:03:49.060Z,9.87
2018-12-04T02:04:48.972Z,9.80
2018-12-04T02:05:48.917Z,9.86
2018-12-04T02:06:48.862Z,9.87
2018-12-04T02:07:48.809Z,9.84
2018-12-04T02:08:48.788Z,9.82
2018-12-04T02:09:48.704Z,9.74
2018-12-04T02:10:48.647Z,9.74
2018-12-04T02:11:48.596Z,9.76
2018-12-04T02:12:48.548Z,9.79
2018-12-04T02:13:48.527Z,9.74
2018-12-04T02:14:48.468Z,9.77
2018-12-04T02:15:48.382Z,9.77
2018-12-04T02:16:48.334Z,9.76
2018-12-04T02:17:48.277Z,9.66
2018-12-04T02:18:48.222Z,9.66
2018-12-04T02:19:48.199Z,9.68
2018-12-04T02:20:48.120Z,9.68
2018-12-04T02:21:48.064Z,9.80
2018-12-04T02:22:48.007Z,9.73
2018-12-04T02:23:47.956Z,9.74
2018-12-04T02:24:47.934Z,9.69
2018-12-04T02:25:47.850Z,9.68
2018-12-04T02:26:47.803Z,9.68
2018-12-04T02:27:47.743Z,9.69
2018-12-04T02:28:47.690Z,9.62
2018-12-04T02:29:47.678Z,9.72
2018-12-04T02:30:47.584Z,9.68
2018-12-04T02:31:47.528Z,9.66
2018-12-04T02:32:47.475Z,9.69
2018-12-04T02:33:47.423Z,9.72
2018-12-04T02:34:47.423Z,9.73
2018-12-04T02:35:47.316Z,9.73
2018-12-04T02:36:47.262Z,9.68
2018-12-04T02:37:47.212Z,9.68
2018-12-04T02:38:47.164Z,9.65
2018-12-04T02:39:47.143Z,9.69
2018-12-04T02:40:47.050Z,9.69
2018-12-04T02:41:46.997Z,9.69
2018-12-04T02:42:46.944Z,9.68
2018-12-04T02:43:46.891Z,9.68
2018-12-04T02:44:46.867Z,9.64
2018-12-04T02:45:46.813Z,9.72
2018-12-04T02:46:46.748Z,9.61
2018-12-04T02:47:46.683Z,9.69
2018-12-04T02:48:46.626Z,9.66
2018-12-04T02:49:46.573Z,9.69
2018-12-04T02:50:46.554Z,9.58
2018-12-04T02:51:46.479Z,9.62
2018-12-04T02:52:46.416Z,9.55
2018-12-04T02:53:46.357Z,9.61
2018-12-04T02:54:46.309Z,9.61
2018-12-04T02:55:46.283Z,9.59
2018-12-04T02:56:46.203Z,9.55
2018-12-04T02:57:46.152Z,9.58
2018-12-04T02:58:46.092Z,9.64
2018-12-04T02:59:46.076Z,9.61
2018-12-04T03:00:45.988Z,9.58
2018-12-04T03:01:45.962Z,9.56
2018-12-04T03:02:45.877Z,9.58
2018-12-04T03:03:45.823Z,9.58
2018-12-04T03:04:45.772Z,9.65
2018-12-04T03:05:45.716Z,9.59
2018-12-04T03:06:45.702Z,9.56
2018-12-04T03:07:45.615Z,9.56
2018-12-04T03:08:45.558Z,9.54
2018-12-04T03:09:45.507Z,9.59
2018-12-04T03:10:45.452Z,9.54
2018-12-04T03:11:45.446Z,9.59
2018-12-04T03:12:45.381Z,9.47
2018-12-04T03:13:45.291Z,9.47
2018-12-04T03:14:45.270Z,9.56
2018-12-04T03:15:45.213Z,9.50
2018-12-04T03:16:45.162Z,9.54
2018-12-04T03:17:45.076Z,9.46
2018-12-04T03:18:45.024Z,9.51
2018-12-04T03:19:44.979Z,9.54
2018-12-04T03:20:44.957Z,9.51
2018-12-04T03:21:44.863Z,9.48
2018-12-04T03:22:44.814Z,9.51
2018-12-04T03:23:44.758Z,9.41
2018-12-04T03:24:44.706Z,9.55
2018-12-04T03:25:44.680Z,9.43
2018-12-04T03:26:44.595Z,9.46
2018-12-04T03:27:44.555Z,9.51
2018-12-04T03:28:44.489Z,9.37
2018-12-04T03:29:44.477Z,9.46
2018-12-04T03:30:44.386Z,9.44
2018-12-04T03:31:44.361Z,9.50
2018-12-04T03:32:44.284Z,9.50
2018-12-04T03:33:44.221Z,9.36
2018-12-04T03:34:44.169Z,9.44
2018-12-04T03:35:44.121Z,9.41
2018-12-04T03:36:44.095Z,9.40
2018-12-04T03:37:44.010Z,9.40
2018-12-04T03:38:43.954Z,9.46
2018-12-04T03:39:43.901Z,9.39
2018-12-04T03:40:43.854Z,9.32
2018-12-04T03:41:43.827Z,9.40
2018-12-04T03:42:43.744Z,9.36
2018-12-04T03:43:43.707Z,9.36
2018-12-04T03:44:43.636Z,9.34
2018-12-04T03:45:43.616Z,9.29
2018-12-04T03:46:43.561Z,9.32
2018-12-04T03:47:43.476Z,9.19
2018-12-04T03:48:43.423Z,9.28
2018-12-04T03:49:43.375Z,9.22
2018-12-04T03:50:43.313Z,9.26
2018-12-04T03:51:43.292Z,9.26
2018-12-04T03:52:43.215Z,9.26
2018-12-04T03:53:43.205Z,9.23
2018-12-04T03:54:43.106Z,9.18
2018-12-04T03:55:43.047Z,9.21
2018-12-04T03:56:42.992Z,9.14
2018-12-04T03:57:42.940Z,9.21
2018-12-04T03:58:42.924Z,9.13
2018-12-04T03:59:42.843Z,9.14
2018-12-04T04:00:42.784Z,9.13
2018-12-04T04:01:42.728Z,9.10
2018-12-04T04:02:42.674Z,9.04
2018-12-04T04:03:42.663Z,9.08
2018-12-04T04:04:42.567Z,9.16
2018-12-04T04:05:42.517Z,9.11
2018-12-04T04:06:42.495Z,8.91
2018-12-04T04:07:42.408Z,9.02
2018-12-04T04:08:42.358Z,9.02
2018-12-04T04:09:42.330Z,9.02
2018-12-04T04:10:42.248Z,9.03
2018-12-04T04:11:42.193Z,9.04
2018-12-04T04:12:42.161Z,9.00
2018-12-04T04:13:42.087Z,9.00
2018-12-04T04:14:42.066Z,8.89
2018-12-04T04:15:41.978Z,8.94
2018-12-04T04:16:41.928Z,8.97
2018-12-04T04:17:41.872Z,9.02
2018-12-04T04:18:41.821Z,9.00
2018-12-04T04:19:41.799Z,8.92
2018-12-04T04:20:41.743Z,8.91
2018-12-04T04:21:41.665Z,8.89
2018-12-04T04:22:41.602Z,8.82
2018-12-04T04:23:41.551Z,8.73
2018-12-04T04:24:41.496Z,8.74
2018-12-04T04:25:41.479Z,8.73
2018-12-04T04:26:41.391Z,8.74
2018-12-04T04:27:41.375Z,8.61
2018-12-04T04:28:41.281Z,8.66
2018-12-04T04:29:41.234Z,8.67
2018-12-04T04:30:41.174Z,8.66
2018-12-04T04:31:41.125Z,8.61
2018-12-04T04:32:41.235Z,8.55
2018-12-04T04:33:41.017Z,8.63
2018-12-04T04:34:40.968Z,8.52
2018-12-04T04:35:40.912Z,8.53
2018-12-04T04:36:40.855Z,8.49
2018-12-04T04:37:40.831Z,8.49
2018-12-04T04:38:40.750Z,8.46
2018-12-04T04:39:40.692Z,8.48
2018-12-04T04:40:40.677Z,8.45
2018-12-04T04:41:40.584Z,8.37
2018-12-04T04:42:40.533Z,8.44
2018-12-04T04:43:40.482Z,8.41
2018-12-04T04:44:40.442Z,8.33
2018-12-04T04:45:40.410Z,8.33
2018-12-04T04:46:40.321Z,8.38
2018-12-04T04:47:40.269Z,8.38
2018-12-04T04:48:40.207Z,8.37
2018-12-04T04:49:40.162Z,8.36
2018-12-04T04:50:40.131Z,8.34
2018-12-04T04:51:40.072Z,8.36
2018-12-04T04:52:39.995Z,8.33
2018-12-04T04:53:39.940Z,8.36
2018-12-04T04:54:39.889Z,8.19
2018-12-04T04:55:39.842Z,8.16
2018-12-04T04:56:39.801Z,8.09
2018-12-04T04:57:39.728Z,8.00
2018-12-04T04:58:39.672Z,7.94
2018-12-04T04:59:39.618Z,7.90
2018-12-04T05:00:39.604Z,7.82
2018-12-04T05:01:39.511Z,7.90
2018-12-04T05:02:39.465Z,7.76
2018-12-04T05:03:39.400Z,7.75
2018-12-04T05:04:39.347Z,7.79
2018-12-04T05:05:39.328Z,7.63
2018-12-04T05:06:39.274Z,7.61
2018-12-04T05:07:39.185Z,7.66
2018-12-04T05:08:39.132Z,7.56
2018-12-04T05:09:39.079Z,7.57
2018-12-04T05:10:39.025Z,7.63
2018-12-04T05:11:39.011Z,7.50
2018-12-04T05:12:38.916Z,7.56
2018-12-04T05:13:38.860Z,7.45
2018-12-04T05:14:38.809Z,7.47
2018-12-04T05:15:38.752Z,7.45
2018-12-04T05:16:38.745Z,7.50
2018-12-04T05:17:38.648Z,7.38
2018-12-04T05:18:38.590Z,7.35
2018-12-04T05:19:38.534Z,7.43
2018-12-04T05:20:38.483Z,7.36
2018-12-04T05:21:38.466Z,7.36
2018-12-04T05:22:38.372Z,7.39
2018-12-04T05:23:38.320Z,7.32
2018-12-04T05:24:38.266Z,7.35
2018-12-04T05:25:38.211Z,7.36
2018-12-04T05:26:38.189Z,7.47
2018-12-04T05:27:38.105Z,7.33
2018-12-04T05:28:38.069Z,7.31
2018-12-04T05:29:37.995Z,7.28
2018-12-04T05:30:37.973Z,7.32
2018-12-04T05:31:37.885Z,7.35
2018-12-04T05:32:37.832Z,7.29
2018-12-04T05:33:37.778Z,7.39
2018-12-04T05:34:37.745Z,7.39
2018-12-04T05:35:37.669Z,7.38
2018-12-04T05:36:37.616Z,7.35
2018-12-04T05:37:37.593Z,7.32
2018-12-04T05:38:37.508Z,7.31
2018-12-04T05:39:37.451Z,7.32
2018-12-04T05:40:37.396Z,7.15
2018-12-04T05:41:37.343Z,7.15
2018-12-04T05:42:37.322Z,7.17
2018-12-04T05:43:37.237Z,7.23
2018-12-04T05:44:37.191Z,7.23
2018-12-04T05:45:37.125Z,7.17
2018-12-04T05:46:37.103Z,7.18
2018-12-04T05:47:37.019Z,7.14
2018-12-04T05:48:36.962Z,7.17
2018-12-04T05:49:36.909Z,7.17
2018-12-04T05:50:36.852Z,7.00
2018-12-04T05:51:36.830Z,7.03
2018-12-04T05:52:36.748Z,7.06
2018-12-04T05:53:36.690Z,7.03
2018-12-04T05:54:36.667Z,7.06
2018-12-04T05:55:36.583Z,7.03
2018-12-04T05:56:36.532Z,7.11
2018-12-04T05:57:36.496Z,7.07
2018-12-04T05:58:36.417Z,7.03
2018-12-04T05:59:36.362Z,7.13
2018-12-04T06:00:36.309Z,7.13
2018-12-04T06:01:36.258Z,7.10
2018-12-04T06:02:36.233Z,7.02
2018-12-04T06:03:36.147Z,6.99
2018-12-04T06:04:36.090Z,7.02
2018-12-04T06:05:36.059Z,7.00
2018-12-04T06:06:35.981Z,7.03
2018-12-04T06:07:35.929Z,7.02
2018-12-04T06:08:35.883Z,6.95
2018-12-04T06:09:35.856Z,7.02
2018-12-04T06:10:35.765Z,6.95
2018-12-04T06:11:35.709Z,7.03
2018-12-04T06:12:35.656Z,6.89
2018-12-04T06:13:35.625Z,6.92
2018-12-04T06:14:35.588Z,6.92
2018-12-04T06:15:35.496Z,6.93
2018-12-04T06:16:35.438Z,6.96
2018-12-04T06:17:35.381Z,6.93
2018-12-04T06:18:35.325Z,6.95
2018-12-04T06:19:35.314Z,6.97
2018-12-04T06:20:35.221Z,6.96
2018-12-04T06:21:35.165Z,6.95
2018-12-04T06:22:35.107Z,6.93
2018-12-04T06:23:35.054Z,6.89
2018-12-04T06:24:35.033Z,6.95
2018-12-04T06:25:34.947Z,6.92
2018-12-04T06:26:34.890Z,6.89
2018-12-04T06:27:34.840Z,6.92
2018-12-04T06:28:34.783Z,6.92
2018-12-04T06:29:34.759Z,6.88
2018-12-04T06:30:34.703Z,6.93
2018-12-04T06:31:34.623Z,6.84
2018-12-04T06:32:34.561Z,6.92
2018-12-04T06:33:34.507Z,6.92
2018-12-04T06:34:34.453Z,6.87
2018-12-04T06:35:34.431Z,6.88
2018-12-04T06:36:34.342Z,6.92
2018-12-04T06:37:34.291Z,6.93
2018-12-04T06:38:34.235Z,6.93
2018-12-04T06:39:34.180Z,6.93
2018-12-04T06:40:34.155Z,6.95
2018-12-04T06:41:34.095Z,6.88
2018-12-04T06:42:34.015Z,6.97
2018-12-04T06:43:33.962Z,6.92
2018-12-04T06:44:33.905Z,6.95
2018-12-04T06:45:33.854Z,6.95
2018-12-04T06:46:33.826Z,6.92
2018-12-04T06:47:33.743Z,6.87
2018-12-04T06:48:33.687Z,6.92
2018-12-04T06:49:33.634Z,6.89
2018-12-04T06:50:33.581Z,6.93
2018-12-04T06:51:33.548Z,6.95
2018-12-04T06:52:33.471Z,6.87
2018-12-04T06:53:33.415Z,6.95
2018-12-04T06:54:33.360Z,6.95
2018-12-04T06:55:33.306Z,6.88
2018-12-04T06:56:33.275Z,6.89
2018-12-04T06:57:33.196Z,6.89
2018-12-04T06:58:33.141Z,6.88
2018-12-04T06:59:33.088Z,6.87
2018-12-04T07:00:33.033Z,6.81
2018-12-04T07:01:33.003Z,6.82
2018-12-04T07:02:32.925Z,6.75
2018-12-04T07:03:32.874Z,6.74
2018-12-04T07:04:32.813Z,6.79
2018-12-04T07:05:32.793Z,6.78
2018-12-04T07:06:32.704Z,6.74
2018-12-04T07:07:32.681Z,6.64
2018-12-04T07:08:32.599Z,6.64
2018-12-04T07:09:32.541Z,6.72
2018-12-04T07:10:32.501Z,6.70
2018-12-04T07:11:32.465Z,6.77
2018-12-04T07:12:32.384Z,6.69
2018-12-04T07:13:32.354Z,6.70
2018-12-04T07:14:32.266Z,6.67
2018-12-04T07:15:32.213Z,6.67
2018-12-04T07:16:32.190Z,6.75
2018-12-04T07:17:32.104Z,6.72
2018-12-04T07:18:32.083Z,6.74
2018-12-04T07:19:31.993Z,6.81
2018-12-04T07:20:31.940Z,6.75
2018-12-04T07:21:31.919Z,6.75
2018-12-04T07:22:31.830Z,6.77
2018-12-04T07:23:31.779Z,6.78
2018-12-04T07:24:31.724Z,6.79
2018-12-04T07:25:31.666Z,6.78
2018-12-04T07:26:31.655Z,6.70
2018-12-04T07:27:31.561Z,6.79
2018-12-04T07:28:31.503Z,6.70
2018-12-04T07:29:31.449Z,6.66
2018-12-04T07:30:31.393Z,6.75
2018-12-04T07:31:31.378Z,6.74
2018-12-04T07:32:31.283Z,6.70
2018-12-04T07:33:31.227Z,6.69
2018-12-04T07:34:31.172Z,6.74
2018-12-04T07:35:31.116Z,6.75
2018-12-04T07:36:31.112Z,6.75
2018-12-04T07:37:31.008Z,6.70
2018-12-04T07:38:30.955Z,6.69
2018-12-04T07:39:30.898Z,6.69
2018-12-04T07:40:30.844Z,6.67
2018-12-04T07:41:30.821Z,6.72
2018-12-04T07:42:30.736Z,6.77
2018-12-04T07:43:30.682Z,6.70
2018-12-04T07:44:30.624Z,6.74
2018-12-04T07:45:30.573Z,6.69
2018-12-04T07:46:30.546Z,6.69
2018-12-04T07:47:30.464Z,6.70
2018-12-04T07:48:30.442Z,6.78
2018-12-04T07:49:30.351Z,6.74
2018-12-04T07:50:30.296Z,6.66
2018-12-04T07:51:30.242Z,6.69
2018-12-04T07:52:30.187Z,6.75
2018-12-04T07:53:30.163Z,6.78
2018-12-04T07:54:30.077Z,6.70
2018-12-04T07:55:30.022Z,6.77
2018-12-04T07:56:29.968Z,6.72
2018-12-04T07:57:29.912Z,6.67
2018-12-04T07:58:29.890Z,6.75
2018-12-04T07:59:29.834Z,6.74
2018-12-04T08:00:29.749Z,6.77
2018-12-04T08:01:29.693Z,6.66
2018-12-04T08:02:29.639Z,6.72
2018-12-04T08:03:29.589Z,6.70
2018-12-04T08:04:29.565Z,6.66
2018-12-04T08:05:29.481Z,6.72
2018-12-04T08:06:29.455Z,6.75
2018-12-04T08:07:29.365Z,6.75
2018-12-04T08:08:29.312Z,6.70
2018-12-04T08:09:29.255Z,6.72
2018-12-04T08:10:29.229Z,6.77
2018-12-04T08:11:29.147Z,6.75
2018-12-04T08:12:29.091Z,6.78
2018-12-04T08:13:29.060Z,6.85
2018-12-04T08:14:28.980Z,6.84
2018-12-04T08:15:28.926Z,6.88
2018-12-04T08:16:28.969Z,6.92
2018-12-04T08:17:28.817Z,6.92
2018-12-04T08:18:29.047Z,6.97
2018-12-04T08:19:28.706Z,7.05
2018-12-04T08:20:28.652Z,7.02
2018-12-04T08:21:28.599Z,7.11
2018-12-04T08:22:28.542Z,7.20
2018-12-04T08:23:28.536Z,7.14
2018-12-04T08:24:28.436Z,7.35
2018-12-04T08:25:28.379Z,7.33
2018-12-04T08:26:28.325Z,7.36
2018-12-04T08:27:28.269Z,7.48
2018-12-04T08:28:28.261Z,7.53
2018-12-04T08:29:28.159Z,7.61
2018-12-04T08:30:28.107Z,7.79
2018-12-04T08:31:28.051Z,8.03
2018-12-04T08:32:27.999Z,8.19
2018-12-04T08:33:27.977Z,9.04
2018-12-04T08:34:27.889Z,10.07
2018-12-04T08:35:27.835Z,10.10
2018-12-04T08:36:27.785Z,10.13
2018-12-04T08:37:27.737Z,11.17
2018-12-04T08:38:27.710Z,12.31
2018-12-04T08:39:27.626Z,12.21
2018-12-04T08:40:27.572Z,11.68
2018-12-04T08:41:27.526Z,11.51
2018-12-04T08:42:27.471Z,11.80
2018-12-04T08:43:27.453Z,11.55
2018-12-04T08:44:27.370Z,11.10
2018-12-04T08:45:27.354Z,10.79
2018-12-04T08:46:27.268Z,10.51
2018-12-04T08:47:27.218Z,10.17
2018-12-04T08:48:27.207Z,10.04
2018-12-04T08:49:27.114Z,9.76
2018-12-04T08:50:27.102Z,9.69
2018-12-04T08:51:27.014Z,9.55
2018-12-04T08:52:26.963Z,9.34
2018-12-04T08:53:26.912Z,9.22
2018-12-04T08:54:26.860Z,9.03
2018-12-04T08:55:26.841Z,9.03
2018-12-04T08:56:26.757Z,8.79
2018-12-04T08:57:26.705Z,8.78
2018-12-04T08:58:26.656Z,8.81
2018-12-04T08:59:26.606Z,8.69
2018-12-04T09:00:26.582Z,8.48
2018-12-04T09:01:26.497Z,8.60
2018-12-04T09:02:26.452Z,8.51
2018-12-04T09:03:26.393Z,8.52
2018-12-04T09:04:26.391Z,8.44
2018-12-04T09:05:26.290Z,8.31
2018-12-04T09:06:26.237Z,8.27
2018-12-04T09:07:26.186Z,8.24
2018-12-04T09:08:26.130Z,8.19
2018-12-04T09:09:26.109Z,8.12
2018-12-04T09:10:26.049Z,8.06
2018-12-04T09:11:25.974Z,8.06
2018-12-04T09:12:25.925Z,7.93
2018-12-04T09:13:25.872Z,7.87
2018-12-04T09:14:25.819Z,7.79
2018-12-04T09:15:25.788Z,7.76
2018-12-04T09:16:25.711Z,7.82
2018-12-04T09:17:25.656Z,7.61
2018-12-04T09:18:25.655Z,7.66
2018-12-04T09:19:25.623Z,7.67
2018-12-04T09:20:25.572Z,7.56
2018-12-04T09:21:25.512Z,7.47
2018-12-04T09:22:25.449Z,7.45
2018-12-04T09:23:25.380Z,7.38
2018-12-04T09:24:30.514Z,7.47
2018-12-04T09:25:25.248Z,7.38
2018-12-04T09:26:25.201Z,7.33
2018-12-04T09:27:25.165Z,7.42
2018-12-04T09:28:25.115Z,7.47
2018-12-04T09:29:25.040Z,7.36
2018-12-04T09:30:25.011Z,7.36
2018-12-04T09:31:24.915Z,7.38
2018-12-04T09:32:24.860Z,7.45
2018-12-04T09:33:24.805Z,7.40
2018-12-04T09:34:29.798Z,7.38
2018-12-04T09:35:24.708Z,7.45
2018-12-04T09:36:24.669Z,7.48
2018-12-04T09:37:24.595Z,7.47
2018-12-04T09:38:24.536Z,7.45
2018-12-04T09:39:24.514Z,7.53
2018-12-04T09:40:24.431Z,7.56
2018-12-04T09:41:24.376Z,7.58
2018-12-04T09:42:24.322Z,7.66
2018-12-04T09:43:24.268Z,7.77
2018-12-04T09:44:24.245Z,7.82
2018-12-04T09:45:24.160Z,8.00
2018-12-04T09:46:24.106Z,8.53
2018-12-04T09:47:24.126Z,8.67
2018-12-04T09:48:24.004Z,9.10
2018-12-04T09:49:23.982Z,9.34
2018-12-04T09:50:23.896Z,9.56
2018-12-04T09:51:23.840Z,9.48
2018-12-04T09:52:23.787Z,9.44
2018-12-04T09:53:25.331Z,9.51
2018-12-04T09:54:23.714Z,10.02
2018-12-04T09:55:23.663Z,9.86
2018-12-04T09:56:23.609Z,9.73
2018-12-04T09:57:23.527Z,9.62
2018-12-04T09:58:23.474Z,9.50
2018-12-04T09:59:23.452Z,9.55
2018-12-04T10:00:23.399Z,9.44
2018-12-04T10:01:23.321Z,9.29
2018-12-04T10:02:23.265Z,9.19
2018-12-04T10:03:23.211Z,9.10
2018-12-04T10:04:23.160Z,9.10
2018-12-04T10:05:23.140Z,9.00
2018-12-04T10:06:23.090Z,9.02
2018-12-04T10:07:23.053Z,8.99
2018-12-04T10:08:22.951Z,8.94
2018-12-04T10:09:22.899Z,8.95
2018-12-04T10:10:22.846Z,8.95
2018-12-04T10:11:22.797Z,8.85
2018-12-04T10:12:22.781Z,8.84
2018-12-04T10:13:22.689Z,8.82
2018-12-04T10:14:22.636Z,8.71
2018-12-04T10:15:22.588Z,8.64
2018-12-04T10:16:22.532Z,8.58
2018-12-04T10:17:22.505Z,8.51
2018-12-04T10:18:22.460Z,8.49
2018-12-04T10:19:22.374Z,8.49
2018-12-04T10:20:22.323Z,8.49
2018-12-04T10:21:22.303Z,8.52
2018-12-04T10:22:22.214Z,8.49
2018-12-04T10:23:22.162Z,8.49
2018-12-04T10:24:22.116Z,8.49
2018-12-04T10:25:22.068Z,8.36
2018-12-04T10:26:22.037Z,8.31
2018-12-04T10:27:21.985Z,8.30
2018-12-04T10:28:21.906Z,8.26
2018-12-04T10:29:21.848Z,8.20
2018-12-04T10:30:21.796Z,8.27
2018-12-04T10:31:21.740Z,8.24
2018-12-04T10:32:21.724Z,8.20
2018-12-04T10:33:21.637Z,8.10
2018-12-04T10:34:21.583Z,8.13
2018-12-04T10:35:21.530Z,8.05
2018-12-04T10:36:21.481Z,8.34
2018-12-04T10:37:21.473Z,8.15
2018-12-04T10:38:21.369Z,8.06
2018-12-04T10:39:21.317Z,8.00
2018-12-04T10:40:21.267Z,7.97
2018-12-04T10:41:21.218Z,8.03
2018-12-04T10:42:21.202Z,8.05
2018-12-04T10:43:21.110Z,8.01
2018-12-04T10:44:21.052Z,7.97
2018-12-04T10:45:21.001Z,7.93
2018-12-04T10:46:20.948Z,7.91
2018-12-04T10:47:20.927Z,7.77
2018-12-04T10:48:20.841Z,7.67
2018-12-04T10:49:20.821Z,7.76
2018-12-04T10:50:20.737Z,7.75
2018-12-04T10:51:20.682Z,7.93
2018-12-04T10:52:20.633Z,8.03
2018-12-04T10:53:20.573Z,7.90
2018-12-04T10:54:20.548Z,7.93
2018-12-04T10:55:20.501Z,7.91
2018-12-04T10:56:20.411Z,7.79
2018-12-04T10:57:20.361Z,7.75
2018-12-04T10:58:20.305Z,7.79
2018-12-04T10:59:20.253Z,7.69
2018-12-04T11:00:20.235Z,7.60
2018-12-04T11:01:20.150Z,7.67
2018-12-04T11:02:20.124Z,7.72
2018-12-04T11:03:20.038Z,7.60
2018-12-04T11:04:19.987Z,7.60
2018-12-04T11:05:19.933Z,7.60
2018-12-04T11:06:19.876Z,7.66
2018-12-04T11:07:19.875Z,7.60
2018-12-04T11:08:19.774Z,7.63
2018-12-04T11:09:19.719Z,7.61
2018-12-04T11:10:19.673Z,7.79
2018-12-04T11:11:19.609Z,7.75
2018-12-04T11:12:19.612Z,7.79
2018-12-04T11:13:19.505Z,7.82
2018-12-04T11:14:19.450Z,7.87
2018-12-04T11:15:19.397Z,7.87
2018-12-04T11:16:19.343Z,8.09
2018-12-04T11:17:19.321Z,8.16
2018-12-04T11:18:19.237Z,8.36
2018-12-04T11:19:19.183Z,8.49
2018-12-04T11:20:19.179Z,8.74
2018-12-04T11:21:19.074Z,9.11
2018-12-04T11:22:19.026Z,9.36
2018-12-04T11:23:18.969Z,9.23
2018-12-04T11:24:18.921Z,9.19
2018-12-04T11:25:18.903Z,9.37
2018-12-04T11:26:18.817Z,9.43
2018-12-04T11:27:18.763Z,9.74
2018-12-04T11:28:18.704Z,9.68
2018-12-04T11:29:18.650Z,9.87
2018-12-04T11:30:18.621Z,9.83
2018-12-04T11:31:18.544Z,9.72
2018-12-04T11:32:18.516Z,9.79
2018-12-04T11:33:18.443Z,9.62
2018-12-04T11:34:18.385Z,9.55
2018-12-04T11:35:18.340Z,9.43
2018-12-04T11:36:18.314Z,9.44
2018-12-04T11:37:18.230Z,9.41
2018-12-04T11:38:18.175Z,9.19
2018-12-04T11:39:18.125Z,9.10
2018-12-04T11:40:18.076Z,8.97
2018-12-04T11:41:18.049Z,8.79
2018-12-04T11:42:17.961Z,8.78
2018-12-04T11:43:17.942Z,8.66
2018-12-04T11:44:17.859Z,8.71
2018-12-04T11:45:17.808Z,8.63
2018-12-04T11:46:17.755Z,8.56
2018-12-04T11:47:17.700Z,8.44
2018-12-04T11:48:17.681Z,8.33
2018-12-04T11:49:17.597Z,8.33
2018-12-04T11:50:17.543Z,8.28
2018-12-04T11:51:17.489Z,8.31
2018-12-04T11:52:17.437Z,8.30
2018-12-04T11:53:17.419Z,8.33
2018-12-04T11:54:17.331Z,8.31
2018-12-04T11:55:17.280Z,8.33
2018-12-04T11:56:17.223Z,8.27
2018-12-04T11:57:17.171Z,8.34
2018-12-04T11:58:17.152Z,8.31
2018-12-04T11:59:17.104Z,8.37
2018-12-04T12:00:17.011Z,8.31
2018-12-04T12:01:16.960Z,8.30
2018-12-04T12:02:16.912Z,8.34
2018-12-04T12:03:16.884Z,8.26
2018-12-04T12:04:16.805Z,8.16
2018-12-04T12:05:16.752Z,8.18
2018-12-04T12:06:16.729Z,8.18
2018-12-04T12:07:20.524Z,8.08
2018-12-04T12:08:16.585Z,8.09
2018-12-04T12:09:16.653Z,8.06
2018-12-04T12:10:16.481Z,7.94
2018-12-04T12:11:16.433Z,7.95
2018-12-04T12:12:16.372Z,7.98
2018-12-04T12:13:16.321Z,7.93
2018-12-04T12:14:16.315Z,7.94
2018-12-04T12:15:18.295Z,7.91
2018-12-04T12:16:16.161Z,7.90
2018-12-04T12:17:16.112Z,7.90
2018-12-04T12:18:16.052Z,7.91
2018-12-04T12:19:16.033Z,7.88
2018-12-04T12:20:15.944Z,7.83
2018-12-04T12:21:15.895Z,7.80
2018-12-04T12:22:15.839Z,7.87
2018-12-04T12:23:15.786Z,7.77
2018-12-04T12:24:15.764Z,7.76
2018-12-04T12:25:15.708Z,7.75
2018-12-04T12:26:15.623Z,7.79
2018-12-04T12:27:15.570Z,7.77
2018-12-04T12:28:15.520Z,7.75
2018-12-04T12:29:15.465Z,7.60
2018-12-04T12:30:15.442Z,7.67
2018-12-04T12:31:15.356Z,7.67
2018-12-04T12:32:15.303Z,7.69
2018-12-04T12:33:15.255Z,7.56
2018-12-04T12:34:15.196Z,7.58
2018-12-04T12:35:15.195Z,7.61
2018-12-04T12:36:15.090Z,7.57
2018-12-04T12:37:16.002Z,7.58
2018-12-04T12:38:14.982Z,7.67
2018-12-04T12:39:15.065Z,7.60
2018-12-04T12:40:14.907Z,7.79
2018-12-04T12:41:14.824Z,7.69
2018-12-04T12:42:14.765Z,7.76
2018-12-04T12:43:14.714Z,7.77
2018-12-04T12:44:14.659Z,7.69
2018-12-04T12:45:14.640Z,7.67
2018-12-04T12:46:14.594Z,7.66
2018-12-04T12:47:14.500Z,7.54
2018-12-04T12:48:14.444Z,7.48
2018-12-04T12:49:14.399Z,7.48
2018-12-04T12:50:14.337Z,7.45
2018-12-04T12:51:14.315Z,7.40
2018-12-04T12:52:14.229Z,7.42
2018-12-04T12:53:14.179Z,7.40
2018-12-04T12:54:14.123Z,7.43
2018-12-04T12:55:14.069Z,7.29
2018-12-04T12:56:14.045Z,7.32
2018-12-04T12:57:13.992Z,7.28
2018-12-04T12:58:13.905Z,7.42
2018-12-04T12:59:13.853Z,7.35
2018-12-04T13:00:13.798Z,7.25
2018-12-04T13:01:13.748Z,7.29
2018-12-04T13:02:13.722Z,7.38
2018-12-04T13:03:13.672Z,7.32
2018-12-04T13:04:13.593Z,7.48
2018-12-04T13:05:13.534Z,7.80
2018-12-04T13:06:13.475Z,7.90
2018-12-04T13:07:13.419Z,8.10
2018-12-04T13:08:13.430Z,8.30
2018-12-04T13:09:13.350Z,8.45
2018-12-04T13:10:13.258Z,8.52
2018-12-04T13:11:13.205Z,8.69
2018-12-04T13:12:13.154Z,8.82
2018-12-04T13:13:13.133Z,9.04
2018-12-04T13:14:13.047Z,9.22
2018-12-04T13:15:13.023Z,9.43
2018-12-04T13:16:12.938Z,9.58
2018-12-04T13:17:12.887Z,9.69